createdAt,value
2022-07-30T00:00:51.740Z,2.35
2022-07-30T00:03:18.983Z,4.38
2022-07-30T00:05:46.249Z,4.38
2022-07-30T00:08:13.359Z,2.63
2022-07-30T00:10:40.747Z,2.13
2022-07-30T00:13:08.418Z,2.47
2022-07-30T00:15:35.648Z,4.78
2022-07-30T00:18:02.896Z,2.75
2022-07-30T00:20:30.277Z,3.60
2022-07-30T00:23:02.456Z,2.13
2022-07-30T00:25:29.731Z,4.85
2022-07-30T00:27:57.066Z,5.88
2022-07-30T00:30:24.969Z,5.43
2022-07-30T00:32:52.277Z,5.68
2022-07-30T00:35:19.440Z,8.75
2022-07-30T00:37:46.650Z,2.05
2022-07-30T00:40:13.931Z,5.22
2022-07-30T00:42:44.260Z,1.95
2022-07-30T00:45:13.380Z,2.75
2022-07-30T00:47:41.634Z,4.00
2022-07-30T00:50:11.319Z,4.38
2022-07-30T00:52:39.538Z,7.97
2022-07-30T00:55:10.086Z,2.30
2022-07-30T00:57:39.349Z,5.95
2022-07-30T01:00:09.799Z,6.35
2022-07-30T01:02:37.316Z,5.20
2022-07-30T01:05:05.087Z,4.43
2022-07-30T01:07:32.443Z,2.58
2022-07-30T01:09:59.652Z,1.70
2022-07-30T01:12:27.963Z,2.95
2022-07-30T01:14:59.836Z,3.38
2022-07-30T01:17:27.172Z,3.13
2022-07-30T01:19:58.876Z,2.72
2022-07-30T01:22:30.785Z,3.95
2022-07-30T01:25:08.575Z,3.55
2022-07-30T01:27:41.751Z,4.20
2022-07-30T01:30:11.385Z,4.93
2022-07-30T01:32:42.325Z,4.95
2022-07-30T01:35:12.280Z,3.33
2022-07-30T01:37:41.730Z,2.08
2022-07-30T01:40:09.789Z,4.45
2022-07-30T01:42:40.178Z,1.67
2022-07-30T01:45:09.203Z,4.93
2022-07-30T01:47:39.099Z,2.42
2022-07-30T01:50:13.868Z,6.35
2022-07-30T01:52:45.936Z,2.55
2022-07-30T01:55:19.860Z,3.70
2022-07-30T01:57:49.335Z,4.50
2022-07-30T02:00:17.852Z,2.50
2022-07-30T02:02:46.307Z,2.97
2022-07-30T02:05:15.168Z,8.43
2022-07-30T02:07:57.863Z,5.55
2022-07-30T02:13:05.000Z,7.65
2022-07-30T02:15:52.747Z,5.68
2022-07-30T02:18:29.025Z,3.55
2022-07-30T02:21:07.626Z,3.80
2022-07-30T02:23:44.310Z,2.73
2022-07-30T02:26:18.688Z,3.15
2022-07-30T02:28:49.778Z,2.78
2022-07-30T02:31:21.078Z,4.30
2022-07-30T02:33:50.765Z,6.13
2022-07-30T02:36:20.710Z,4.85
2022-07-30T02:38:50.946Z,1.88
2022-07-30T02:41:22.503Z,6.20
2022-07-30T02:43:52.495Z,3.90
2022-07-30T02:46:23.026Z,6.15
2022-07-30T02:49:12.472Z,4.85
2022-07-30T02:51:42.694Z,2.42
2022-07-30T02:54:10.906Z,5.47
2022-07-30T02:56:41.575Z,3.85
2022-07-30T02:59:10.395Z,4.47
2022-07-30T03:01:38.482Z,1.67
2022-07-30T03:04:06.928Z,2.58
2022-07-30T03:06:35.660Z,6.53
2022-07-30T03:09:05.658Z,3.83
2022-07-30T03:11:34.964Z,5.47
2022-07-30T03:14:03.145Z,4.03
2022-07-30T03:16:33.804Z,5.57
2022-07-30T03:19:05.201Z,2.80
2022-07-30T03:21:35.948Z,1.90
2022-07-30T03:24:06.686Z,2.67
2022-07-30T03:26:36.683Z,4.38
2022-07-30T03:29:04.572Z,4.10
2022-07-30T03:31:36.038Z,2.15
2022-07-30T03:34:03.996Z,5.85
2022-07-30T03:36:35.129Z,1.88
2022-07-30T03:39:04.107Z,3.45
2022-07-30T03:41:32.735Z,3.08
2022-07-30T03:44:01.612Z,5.03
2022-07-30T03:46:30.562Z,5.05
2022-07-30T03:48:59.509Z,5.40
2022-07-30T03:51:32.898Z,5.00
2022-07-30T03:54:01.843Z,2.55
2022-07-30T03:56:41.998Z,3.25
2022-07-30T03:59:16.854Z,4.80
2022-07-30T04:01:44.746Z,4.45
2022-07-30T04:04:42.854Z,5.72
2022-07-30T04:09:37.624Z,3.97
2022-07-30T04:12:22.316Z,5.85
2022-07-30T04:14:49.503Z,3.15
2022-07-30T04:17:23.741Z,5.05
2022-07-30T04:20:10.215Z,5.05
2022-07-30T04:22:38.438Z,3.35
2022-07-30T04:25:08.907Z,3.42
2022-07-30T04:27:38.079Z,3.17
2022-07-30T04:30:27.847Z,6.13
2022-07-30T04:32:55.660Z,5.10
2022-07-30T04:35:50.027Z,1.90
2022-07-30T04:41:00.178Z,2.67
2022-07-30T04:43:31.299Z,3.83
2022-07-30T04:45:58.735Z,4.03
2022-07-30T04:48:29.276Z,3.88
2022-07-30T04:51:12.770Z,6.05
2022-07-30T04:53:42.826Z,5.75
2022-07-30T04:56:12.913Z,4.28
2022-07-30T04:58:41.623Z,3.85
2022-07-30T05:01:11.149Z,3.30
2022-07-30T05:03:42.512Z,3.42
2022-07-30T05:06:12.484Z,3.13
2022-07-30T05:08:41.007Z,1.55
2022-07-30T05:11:15.105Z,6.72
2022-07-30T05:13:46.516Z,2.35
2022-07-30T05:16:15.997Z,2.03
2022-07-30T05:18:43.897Z,2.67
2022-07-30T05:21:11.378Z,3.45
2022-07-30T05:23:50.490Z,2.42
2022-07-30T05:26:36.435Z,2.33
2022-07-30T05:29:07.244Z,2.85
2022-07-30T05:31:51.404Z,3.53
2022-07-30T05:34:19.937Z,2.63
2022-07-30T05:36:47.195Z,3.38
2022-07-30T05:39:17.483Z,6.10
2022-07-30T05:41:55.141Z,2.22
2022-07-30T05:44:28.057Z,3.45
2022-07-30T05:46:55.617Z,2.05
2022-07-30T05:49:23.994Z,2.88
2022-07-30T05:51:52.775Z,1.73
2022-07-30T05:54:19.891Z,2.00
2022-07-30T05:57:07.280Z,2.28
2022-07-30T05:59:39.084Z,1.73
2022-07-30T06:02:31.948Z,4.68
2022-07-30T06:05:12.967Z,7.20
2022-07-30T06:07:40.137Z,2.58
2022-07-30T06:10:08.811Z,5.55
2022-07-30T06:12:38.522Z,4.00
2022-07-30T06:15:06.362Z,2.22
2022-07-30T06:17:57.154Z,3.35
2022-07-30T06:20:51.971Z,3.45
2022-07-30T06:23:27.844Z,4.72
2022-07-30T06:26:12.802Z,2.53
2022-07-30T06:28:41.289Z,2.45
2022-07-30T06:31:23.653Z,3.67
2022-07-30T06:33:50.944Z,2.30
2022-07-30T06:36:18.225Z,2.78
2022-07-30T06:39:56.207Z,6.13
2022-07-30T06:42:30.559Z,3.25
2022-07-30T06:45:26.740Z,4.35
2022-07-30T06:48:23.739Z,1.80
2022-07-30T06:50:52.560Z,1.30
2022-07-30T06:53:19.792Z,6.25
2022-07-30T06:56:05.782Z,1.08
2022-07-30T06:58:44.564Z,1.52
2022-07-30T07:01:30.187Z,1.25
2022-07-30T07:03:58.042Z,3.47
2022-07-30T07:06:25.387Z,2.08
2022-07-30T07:08:53.074Z,4.15
2022-07-30T07:11:28.856Z,1.83
2022-07-30T07:14:01.414Z,9.20
2022-07-30T07:16:34.770Z,4.13
2022-07-30T07:19:59.529Z,1.65
2022-07-30T07:22:06.971Z,3.50
2022-07-30T07:24:34.204Z,3.28
2022-07-30T07:27:15.436Z,1.90
2022-07-30T07:30:04.683Z,1.73
2022-07-30T07:32:33.765Z,2.72
2022-07-30T07:35:01.562Z,3.13
2022-07-30T07:37:30.692Z,2.60
2022-07-30T07:39:57.936Z,1.98
2022-07-30T07:42:26.232Z,1.85
2022-07-30T07:44:53.951Z,1.98
2022-07-30T07:47:21.238Z,2.03
2022-07-30T07:50:04.031Z,1.70
2022-07-30T07:52:31.225Z,3.50
2022-07-30T07:54:58.372Z,2.40
2022-07-30T07:57:27.195Z,3.33
2022-07-30T07:59:56.508Z,7.75
2022-07-30T08:02:27.488Z,4.10
2022-07-30T08:05:07.620Z,3.63
2022-07-30T08:07:41.353Z,1.98
2022-07-30T08:10:34.765Z,3.88
2022-07-30T08:13:52.145Z,3.17
2022-07-30T08:16:26.486Z,1.20
2022-07-30T08:19:12.459Z,3.25
2022-07-30T08:21:43.607Z,2.63
2022-07-30T08:24:11.383Z,3.20
2022-07-30T08:26:38.580Z,2.78
2022-07-30T08:29:05.819Z,2.63
2022-07-30T08:31:34.102Z,3.33
2022-07-30T08:34:02.132Z,3.90
2022-07-30T08:36:29.406Z,1.83
2022-07-30T08:38:56.526Z,1.65
2022-07-30T08:41:25.537Z,4.43
2022-07-30T08:43:57.646Z,2.15
2022-07-30T08:49:11.133Z,1.90
2022-07-30T08:51:40.215Z,1.52
2022-07-30T08:54:28.075Z,4.53
2022-07-30T08:56:58.724Z,2.08
2022-07-30T08:59:59.500Z,2.00
2022-07-30T09:02:13.898Z,3.72
2022-07-30T09:04:56.992Z,2.80
2022-07-30T09:07:24.362Z,4.65
2022-07-30T09:09:51.745Z,7.38
2022-07-30T09:12:44.616Z,2.13
2022-07-30T09:15:22.486Z,3.72
2022-07-30T09:17:55.520Z,3.17
2022-07-30T09:20:26.259Z,3.63
2022-07-30T09:22:59.100Z,6.07
2022-07-30T09:25:47.934Z,5.40
2022-07-30T09:28:34.757Z,2.50
2022-07-30T09:31:15.495Z,4.70
2022-07-30T09:34:01.431Z,2.63
2022-07-30T09:37:00.504Z,3.70
2022-07-30T09:39:56.301Z,3.92
2022-07-30T09:43:01.209Z,3.08
2022-07-30T09:45:34.843Z,1.45
2022-07-30T09:48:03.354Z,1.80
2022-07-30T09:50:31.020Z,2.97
2022-07-30T09:53:09.068Z,2.55
2022-07-30T09:55:41.427Z,3.15
2022-07-30T09:58:12.829Z,1.85
2022-07-30T10:01:01.327Z,3.33
2022-07-30T10:03:51.792Z,1.63
2022-07-30T10:06:38.365Z,3.60
2022-07-30T10:09:37.723Z,2.05
2022-07-30T10:14:44.058Z,5.38
2022-07-30T10:17:14.162Z,2.25
2022-07-30T10:19:47.161Z,3.55
2022-07-30T10:22:34.936Z,7.25
2022-07-30T10:25:35.225Z,3.17
2022-07-30T10:28:26.303Z,8.95
2022-07-30T10:30:55.870Z,2.28
2022-07-30T10:33:34.486Z,3.20
2022-07-30T10:36:03.640Z,1.50
2022-07-30T10:38:39.454Z,0.98
2022-07-30T10:41:43.369Z,2.35
2022-07-30T10:44:20.925Z,1.17
2022-07-30T10:47:07.051Z,2.40
2022-07-30T10:49:41.048Z,2.15
2022-07-30T10:52:11.171Z,1.83
2022-07-30T10:54:45.334Z,3.15
2022-07-30T10:57:22.676Z,1.88
2022-07-30T10:59:55.634Z,2.60
2022-07-30T11:02:25.909Z,4.70
2022-07-30T11:05:43.910Z,1.65
2022-07-30T11:08:31.898Z,3.13
2022-07-30T11:11:16.136Z,3.53
2022-07-30T11:14:01.079Z,2.13
2022-07-30T11:16:31.879Z,5.30
2022-07-30T11:19:55.836Z,7.13
2022-07-30T11:22:25.496Z,7.60
2022-07-30T11:24:53.484Z,1.27
2022-07-30T11:27:41.833Z,3.65
2022-07-30T11:30:18.983Z,0.90
2022-07-30T11:32:48.340Z,3.25
2022-07-30T11:35:22.876Z,5.18
2022-07-30T11:38:19.804Z,2.47
2022-07-30T11:40:49.620Z,4.35
2022-07-30T11:43:36.336Z,2.20
2022-07-30T11:46:18.064Z,6.82
2022-07-30T11:48:57.785Z,1.92
2022-07-30T11:51:25.727Z,2.45
2022-07-30T11:54:07.091Z,1.20
2022-07-30T11:56:34.895Z,2.13
2022-07-30T11:59:09.144Z,2.40
2022-07-30T12:01:36.447Z,1.67
2022-07-30T12:04:09.352Z,3.90
2022-07-30T12:06:48.333Z,1.38
2022-07-30T12:09:28.957Z,1.83
2022-07-30T12:11:57.784Z,4.30
2022-07-30T12:14:25.376Z,3.05
2022-07-30T12:16:54.534Z,3.70
2022-07-30T12:19:21.789Z,2.80
2022-07-30T12:21:53.079Z,3.17
2022-07-30T12:24:26.886Z,3.28
2022-07-30T12:27:07.584Z,1.85
2022-07-30T12:29:35.869Z,1.65
2022-07-30T12:32:03.861Z,1.02
2022-07-30T12:34:31.239Z,4.47
2022-07-30T12:37:08.497Z,4.07
2022-07-30T12:39:38.735Z,3.65
2022-07-30T12:42:07.819Z,1.13
2022-07-30T12:44:41.168Z,2.85
2022-07-30T12:47:24.217Z,3.10
2022-07-30T12:50:00.672Z,4.22
2022-07-30T12:52:34.521Z,1.48
2022-07-30T12:55:04.772Z,2.35
2022-07-30T12:57:53.437Z,1.17
2022-07-30T13:00:21.395Z,1.17
2022-07-30T13:02:48.737Z,4.35
2022-07-30T13:05:16.103Z,2.15
2022-07-30T13:08:00.153Z,2.47
2022-07-30T13:10:31.285Z,2.30
2022-07-30T13:12:59.770Z,1.08
2022-07-30T13:15:26.893Z,3.22
2022-07-30T13:17:54.140Z,3.40
2022-07-30T13:20:22.085Z,2.05
2022-07-30T13:22:49.329Z,2.88
2022-07-30T13:25:16.483Z,4.65
2022-07-30T13:27:43.618Z,3.85
2022-07-30T13:30:11.332Z,2.80
2022-07-30T13:32:38.699Z,5.70
2022-07-30T13:35:06.315Z,2.28
2022-07-30T13:37:38.278Z,2.17
2022-07-30T13:42:33.560Z,1.15
2022-07-30T13:45:01.144Z,2.53
2022-07-30T13:47:30.698Z,2.47
2022-07-30T13:49:57.785Z,2.00
2022-07-30T13:52:24.939Z,2.15
2022-07-30T13:54:53.832Z,1.98
2022-07-30T13:57:20.895Z,5.90
2022-07-30T13:59:48.281Z,2.45
2022-07-30T14:02:15.433Z,2.70
2022-07-30T14:04:42.548Z,1.27
2022-07-30T14:07:09.730Z,2.92
2022-07-30T14:09:46.845Z,1.77
2022-07-30T14:12:15.421Z,1.80
2022-07-30T14:14:42.553Z,4.57
2022-07-30T14:17:09.676Z,2.38
2022-07-30T14:19:36.899Z,1.25
2022-07-30T14:22:04.070Z,3.42
2022-07-30T14:24:31.244Z,2.35
2022-07-30T14:26:58.591Z,2.17
2022-07-30T14:29:27.238Z,1.90
2022-07-30T14:31:55.051Z,4.45
2022-07-30T14:34:22.701Z,1.63
2022-07-30T14:36:49.854Z,3.00
2022-07-30T14:39:16.970Z,4.32
2022-07-30T14:41:44.122Z,4.47
2022-07-30T14:44:13.917Z,1.83
2022-07-30T14:46:52.185Z,2.80
2022-07-30T14:49:22.576Z,2.05
2022-07-30T14:51:50.804Z,2.42
2022-07-30T14:54:18.228Z,2.30
2022-07-30T14:56:45.611Z,1.38
2022-07-30T14:59:13.035Z,3.03
2022-07-30T15:01:41.982Z,1.65
2022-07-30T15:04:10.639Z,1.95
2022-07-30T15:06:37.861Z,2.78
2022-07-30T15:09:04.974Z,6.20
2022-07-30T15:11:50.204Z,1.73
2022-07-30T15:14:19.904Z,5.55
2022-07-30T15:16:48.131Z,4.25
2022-07-30T15:19:15.693Z,7.10
2022-07-30T15:21:44.909Z,2.40
2022-07-30T15:24:12.075Z,4.40
2022-07-30T15:26:39.441Z,3.05
2022-07-30T15:29:10.359Z,2.75
2022-07-30T15:31:40.275Z,5.75
2022-07-30T15:34:11.013Z,3.97
2022-07-30T15:36:39.267Z,2.80
2022-07-30T15:39:06.826Z,4.00
2022-07-30T15:41:34.488Z,11.60
2022-07-30T15:44:01.571Z,4.30
2022-07-30T15:46:28.923Z,2.10
2022-07-30T15:48:56.578Z,3.63
2022-07-30T15:51:23.891Z,5.22
2022-07-30T15:53:51.056Z,2.38
2022-07-30T15:56:18.737Z,2.95
2022-07-30T15:58:48.460Z,5.97
2022-07-30T16:01:15.681Z,3.13
2022-07-30T16:03:43.285Z,3.78
2022-07-30T16:06:10.639Z,1.73
2022-07-30T16:08:37.823Z,6.60
2022-07-30T16:11:04.996Z,2.63
2022-07-30T16:13:32.499Z,1.70
2022-07-30T16:15:59.664Z,7.80
2022-07-30T16:18:26.856Z,2.13
2022-07-30T16:20:54.815Z,6.30
2022-07-30T16:23:22.013Z,4.55
2022-07-30T16:25:49.271Z,1.48
2022-07-30T16:28:16.644Z,3.05
2022-07-30T16:30:49.080Z,1.38
2022-07-30T16:33:20.262Z,2.97
2022-07-30T16:35:49.123Z,5.47
2022-07-30T16:38:20.025Z,4.43
2022-07-30T16:40:47.745Z,4.05
2022-07-30T16:43:16.228Z,3.17
2022-07-30T16:45:43.951Z,1.60
2022-07-30T16:48:12.100Z,2.85
2022-07-30T16:50:40.842Z,3.25
2022-07-30T16:53:14.092Z,1.10
2022-07-30T16:55:43.458Z,2.95
2022-07-30T16:58:11.611Z,4.93
2022-07-30T17:00:39.760Z,2.00
2022-07-30T17:03:07.127Z,3.53
2022-07-30T17:05:35.110Z,3.60
2022-07-30T17:08:06.059Z,4.57
2022-07-30T17:10:36.322Z,5.95
2022-07-30T17:13:03.632Z,3.65
2022-07-30T17:15:32.367Z,4.78
2022-07-30T17:18:01.461Z,7.03
2022-07-30T17:20:30.390Z,4.15
2022-07-30T17:22:58.154Z,4.25
2022-07-30T17:25:28.799Z,1.90
2022-07-30T17:27:58.000Z,1.50
2022-07-30T17:30:27.379Z,5.72
2022-07-30T17:32:54.594Z,4.43
2022-07-30T17:35:22.368Z,4.07
2022-07-30T17:37:49.547Z,3.22
2022-07-30T17:40:29.273Z,6.18
2022-07-30T17:43:03.713Z,3.05
2022-07-30T17:45:32.994Z,4.70
2022-07-30T17:48:01.880Z,5.18
2022-07-30T17:50:30.916Z,5.07
2022-07-30T17:52:58.569Z,6.10
2022-07-30T17:55:28.292Z,3.22
2022-07-30T17:57:55.592Z,4.25
2022-07-30T18:00:24.213Z,4.10
2022-07-30T18:02:51.306Z,6.45
2022-07-30T18:05:19.123Z,7.32
2022-07-30T18:07:46.298Z,5.45
2022-07-30T18:10:13.794Z,7.82
2022-07-30T18:12:48.577Z,5.47
2022-07-30T18:15:18.126Z,6.97
2022-07-30T18:17:45.345Z,8.88
2022-07-30T18:20:12.711Z,10.23
2022-07-30T18:22:40.552Z,5.45
2022-07-30T18:25:18.491Z,4.47
2022-07-30T18:27:48.046Z,4.70
2022-07-30T18:30:15.508Z,5.40
2022-07-30T18:32:43.190Z,6.97
2022-07-30T18:35:14.581Z,5.40
2022-07-30T18:37:43.676Z,9.45
2022-07-30T18:40:18.486Z,5.63
2022-07-30T18:42:48.129Z,9.60
2022-07-30T18:45:15.394Z,8.25
2022-07-30T18:47:44.570Z,8.32
2022-07-30T18:50:13.940Z,10.85
2022-07-30T18:52:41.729Z,7.47
2022-07-30T18:55:11.422Z,6.53
2022-07-30T18:57:39.692Z,6.10
2022-07-30T19:00:09.963Z,7.43
2022-07-30T19:02:57.020Z,12.02
2022-07-30T19:05:24.164Z,9.93
2022-07-30T19:07:57.859Z,5.40
2022-07-30T19:10:27.382Z,7.72
2022-07-30T19:12:55.494Z,10.63
2022-07-30T19:15:23.984Z,13.60
2022-07-30T19:17:51.842Z,10.95
2022-07-30T19:20:19.619Z,7.32
2022-07-30T19:22:47.023Z,9.25
2022-07-30T19:25:14.339Z,18.63
2022-07-30T19:27:41.502Z,10.45
2022-07-30T19:30:09.173Z,8.23
2022-07-30T19:32:36.349Z,11.75
2022-07-30T19:35:04.240Z,11.30
2022-07-30T19:37:31.494Z,10.38
2022-07-30T19:40:06.114Z,8.65
2022-07-30T19:42:34.186Z,5.88
2022-07-30T19:45:04.192Z,12.98
2022-07-30T19:47:39.146Z,10.75
2022-07-30T19:50:07.780Z,7.97
2022-07-30T19:52:37.108Z,11.75
2022-07-30T19:55:17.235Z,8.38
2022-07-30T19:57:54.682Z,6.85
2022-07-30T20:00:24.814Z,9.55
2022-07-30T20:02:53.119Z,7.88
2022-07-30T20:05:20.539Z,8.15
2022-07-30T20:07:52.100Z,7.67
2022-07-30T20:10:19.605Z,7.82
2022-07-30T20:12:49.577Z,7.40
2022-07-30T20:15:17.398Z,10.07
2022-07-30T20:17:46.354Z,9.50
2022-07-30T20:20:15.484Z,8.48
2022-07-30T20:22:43.393Z,12.07
2022-07-30T20:25:11.470Z,8.70
2022-07-30T20:27:40.659Z,7.57
2022-07-30T20:30:09.228Z,9.50
2022-07-30T20:32:36.801Z,11.52
2022-07-30T20:35:04.296Z,11.75
2022-07-30T20:37:32.761Z,8.48
2022-07-30T20:40:08.774Z,6.90
2022-07-30T20:42:35.943Z,9.90
2022-07-30T20:45:04.072Z,7.47
2022-07-30T20:47:34.937Z,6.45
2022-07-30T20:50:09.580Z,6.65
2022-07-30T20:52:41.078Z,7.55
2022-07-30T20:55:26.542Z,8.38
2022-07-30T20:58:12.502Z,9.73
2022-07-30T21:00:42.042Z,8.45
2022-07-30T21:03:18.963Z,8.25
2022-07-30T21:05:51.255Z,7.35
2022-07-30T21:08:20.440Z,6.03
2022-07-30T21:10:47.867Z,7.47
2022-07-30T21:13:15.147Z,5.72
2022-07-30T21:15:45.746Z,4.25
2022-07-30T21:18:29.584Z,4.60
2022-07-30T21:20:57.984Z,7.15
2022-07-30T21:23:26.174Z,9.85
2022-07-30T21:26:02.831Z,12.13
2022-07-30T21:28:35.261Z,13.25
2022-07-30T21:33:31.520Z,8.07
2022-07-30T21:35:59.569Z,7.05
2022-07-30T21:38:27.785Z,5.40
2022-07-30T21:40:55.909Z,5.35
2022-07-30T21:43:30.175Z,7.78
2022-07-30T21:45:58.733Z,5.30
2022-07-30T21:48:26.815Z,6.18
2022-07-30T21:50:55.066Z,7.60
2022-07-30T21:53:45.202Z,8.63
2022-07-30T21:56:10.674Z,6.47
2022-07-30T21:58:39.245Z,6.05
2022-07-30T22:04:03.902Z,6.82
2022-07-30T22:06:37.692Z,7.18
2022-07-30T22:09:19.508Z,8.70
2022-07-30T22:11:54.329Z,4.65
2022-07-30T22:14:21.437Z,7.03
2022-07-30T22:16:48.529Z,9.48
2022-07-30T22:19:17.094Z,7.07
2022-07-30T22:21:46.442Z,10.40
2022-07-30T22:24:29.916Z,5.78
2022-07-30T22:27:11.868Z,8.02
2022-07-30T22:29:43.509Z,11.20
2022-07-30T22:32:12.331Z,8.88
2022-07-30T22:34:39.572Z,9.35
2022-07-30T22:37:09.197Z,7.68
2022-07-30T22:39:50.978Z,8.32
2022-07-30T22:42:24.878Z,9.45
2022-07-30T22:45:11.038Z,11.88
2022-07-30T22:47:51.217Z,7.13
2022-07-30T22:50:23.981Z,9.65
2022-07-30T22:52:58.774Z,12.68
2022-07-30T22:55:41.870Z,6.90
2022-07-30T22:58:10.863Z,10.77
2022-07-30T23:00:39.189Z,7.43
2022-07-30T23:03:07.837Z,7.63
2022-07-30T23:05:35.793Z,5.38
2022-07-30T23:08:04.289Z,5.30
2022-07-30T23:10:32.111Z,8.73
2022-07-30T23:12:28.082Z,7.90
2022-07-30T23:12:59.493Z,11.25
2022-07-30T23:15:26.748Z,7.80
2022-07-30T23:17:54.000Z,9.32
2022-07-30T23:20:21.938Z,9.43
2022-07-30T23:22:49.628Z,7.80
2022-07-30T23:25:18.860Z,8.00
2022-07-30T23:27:46.869Z,8.32
2022-07-30T23:30:14.447Z,9.02
2022-07-30T23:32:41.678Z,7.43
2022-07-30T23:35:09.972Z,8.40
2022-07-30T23:37:48.275Z,7.13
2022-07-30T23:40:17.569Z,9.20
2022-07-30T23:42:44.744Z,14.52
2022-07-30T23:45:11.906Z,9.70
2022-07-30T23:47:54.683Z,6.40
2022-07-30T23:50:26.441Z,9.05
2022-07-30T23:52:53.656Z,12.82
2022-07-30T23:55:21.201Z,8.23
2022-07-30T23:57:48.327Z,7.13
